OEFXW EDTF-LOWS
Flight info
| Callsign | OEFXW |
|---|---|
| Flight time | 1h 22m |
| Altitude | 11000 |
| Route | ALINE DCT AMRUP DCT TRA N491 ZUE Z163 NUNRI T103 BEMKI T23 GAPTO N871 BADVI L725 UNKEN UNKEN2R |
| Aircraft | DA42/L-SBDGRY/S |
Departure
| Time | 2026-04-25 15:55 |
|---|---|
| Airport | Freiburg im Breisgau Airfield (EDTF) |
Arrival
| Time | 2026-04-25 17:18 |
|---|---|
| Airport | Salzburg Airport (LOWS) |
| Time | Latitude | Longitude | Altitude | Speed | Heading |
|---|---|---|---|---|---|
| 2026-04-25 15:45 | 48.02290 | 7.83514 | 810 ft | 0 kts | 163° |
| 2026-04-25 15:50 | 48.02271 | 7.83498 | 807 ft | 6 kts | 245° |
| 2026-04-25 15:50 | 48.02231 | 7.83423 | 809 ft | 9 kts | 177° |
| 2026-04-25 15:50 | 48.02161 | 7.83455 | 812 ft | 13 kts | 161° |
| 2026-04-25 15:51 | 48.02066 | 7.83500 | 820 ft | 16 kts | 155° |
| 2026-04-25 15:51 | 48.01993 | 7.83544 | 823 ft | 18 kts | 158° |
| 2026-04-25 15:51 | 48.01869 | 7.83611 | 824 ft | 5 kts | 159° |
| 2026-04-25 15:51 | 48.01860 | 7.83616 | 822 ft | 0 kts | 155° |
| 2026-04-25 15:54 | 48.01819 | 7.83615 | 827 ft | 12 kts | 204° |
| 2026-04-25 15:54 | 48.01787 | 7.83525 | 833 ft | 14 kts | 322° |
| 2026-04-25 15:54 | 48.01994 | 7.83408 | 823 ft | 59 kts | 340° |
| 2026-04-25 15:55 | 48.02494 | 7.83120 | 931 ft | 84 kts | 336° |
| 2026-04-25 15:55 | 48.03062 | 7.82770 | 1145 ft | 91 kts | 339° |
| 2026-04-25 15:55 | 48.03628 | 7.82307 | 1348 ft | 93 kts | 315° |
| 2026-04-25 15:55 | 48.03814 | 7.81362 | 1626 ft | 101 kts | 270° |
| 2026-04-25 15:56 | 48.03566 | 7.80334 | 1864 ft | 112 kts | 238° |
| 2026-04-25 15:56 | 48.03066 | 7.79414 | 2209 ft | 115 kts | 228° |
| 2026-04-25 15:56 | 48.02484 | 7.78602 | 2550 ft | 112 kts | 207° |
| 2026-04-25 15:56 | 48.01731 | 7.78565 | 2884 ft | 112 kts | 166° |
| 2026-04-25 15:57 | 48.00963 | 7.78890 | 3190 ft | 118 kts | 161° |
| 2026-04-25 15:57 | 48.00191 | 7.79350 | 3580 ft | 119 kts | 150° |
| 2026-04-25 15:57 | 47.99470 | 7.80002 | 3843 ft | 123 kts | 139° |
| 2026-04-25 15:57 | 47.98871 | 7.80936 | 4148 ft | 124 kts | 124° |
| 2026-04-25 15:58 | 47.98397 | 7.82010 | 4449 ft | 124 kts | 118° |
| 2026-04-25 15:58 | 47.97937 | 7.83108 | 4800 ft | 125 kts | 121° |
| 2026-04-25 15:58 | 47.97451 | 7.84168 | 5107 ft | 124 kts | 124° |
| 2026-04-25 15:58 | 47.96940 | 7.85212 | 5356 ft | 127 kts | 123° |
| 2026-04-25 15:59 | 47.96436 | 7.86327 | 5670 ft | 129 kts | 121° |
| 2026-04-25 15:59 | 47.95974 | 7.87454 | 6000 ft | 127 kts | 116° |
| 2026-04-25 15:59 | 47.95551 | 7.88636 | 6303 ft | 129 kts | 120° |
| 2026-04-25 15:59 | 47.95056 | 7.89716 | 6595 ft | 127 kts | 125° |
| 2026-04-25 16:00 | 47.94569 | 7.90799 | 6891 ft | 126 kts | 115° |
| 2026-04-25 16:00 | 47.94437 | 7.91198 | 6985 ft | 128 kts | 113° |
| 2026-04-25 16:00 | 47.93811 | 7.93261 | 7405 ft | 134 kts | 111° |
| 2026-04-25 16:00 | 47.93322 | 7.94458 | 7641 ft | 137 kts | 128° |
| 2026-04-25 16:01 | 47.92714 | 7.95405 | 7918 ft | 138 kts | 147° |
| 2026-04-25 16:01 | 47.91845 | 7.96019 | 8202 ft | 137 kts | 163° |
| 2026-04-25 16:01 | 47.90944 | 7.96456 | 8517 ft | 137 kts | 162° |
| 2026-04-25 16:01 | 47.90096 | 7.97168 | 8755 ft | 143 kts | 144° |
| 2026-04-25 16:02 | 47.89335 | 7.98100 | 9176 ft | 142 kts | 139° |
| 2026-04-25 16:02 | 47.88642 | 7.99183 | 9456 ft | 146 kts | 123° |
| 2026-04-25 16:02 | 47.88128 | 8.00445 | 9886 ft | 137 kts | 120° |
| 2026-04-25 16:02 | 47.87630 | 8.01660 | 10206 ft | 138 kts | 122° |
| 2026-04-25 16:03 | 47.87104 | 8.02878 | 10377 ft | 147 kts | 122° |
| 2026-04-25 16:03 | 47.86542 | 8.04154 | 10638 ft | 147 kts | 123° |
| 2026-04-25 16:03 | 47.85976 | 8.05436 | 10875 ft | 148 kts | 124° |
| 2026-04-25 16:03 | 47.85394 | 8.06751 | 10995 ft | 160 kts | 124° |
| 2026-04-25 16:04 | 47.84749 | 8.08199 | 10995 ft | 174 kts | 124° |
| 2026-04-25 16:04 | 47.84064 | 8.09740 | 10997 ft | 181 kts | 124° |
| 2026-04-25 16:04 | 47.83367 | 8.11312 | 10995 ft | 183 kts | 124° |
| 2026-04-25 16:04 | 47.82679 | 8.12870 | 11092 ft | 178 kts | 124° |
| 2026-04-25 16:05 | 47.81995 | 8.14420 | 11093 ft | 180 kts | 124° |
| 2026-04-25 16:05 | 47.81299 | 8.15990 | 11097 ft | 182 kts | 124° |
| 2026-04-25 16:05 | 47.79891 | 8.19165 | 11099 ft | 185 kts | 124° |
| 2026-04-25 16:06 | 47.79180 | 8.20765 | 11095 ft | 186 kts | 124° |
| 2026-04-25 16:06 | 47.78471 | 8.22361 | 11097 ft | 185 kts | 124° |
| 2026-04-25 16:06 | 47.77763 | 8.23954 | 11095 ft | 185 kts | 124° |
| 2026-04-25 16:06 | 47.77046 | 8.25566 | 11093 ft | 188 kts | 124° |
| 2026-04-25 16:07 | 47.76323 | 8.27189 | 11093 ft | 188 kts | 124° |
| 2026-04-25 16:07 | 47.76088 | 8.27718 | 11087 ft | 188 kts | 124° |
| 2026-04-25 16:07 | 47.74895 | 8.30393 | 11092 ft | 186 kts | 124° |
| 2026-04-25 16:07 | 47.74175 | 8.32006 | 11092 ft | 188 kts | 124° |
| 2026-04-25 16:08 | 47.73455 | 8.33620 | 11087 ft | 187 kts | 124° |
| 2026-04-25 16:08 | 47.72737 | 8.35230 | 11086 ft | 187 kts | 124° |
| 2026-04-25 16:08 | 47.72016 | 8.36846 | 11081 ft | 188 kts | 125° |
| 2026-04-25 16:08 | 47.71298 | 8.38450 | 11097 ft | 186 kts | 124° |
| 2026-04-25 16:09 | 47.70580 | 8.40055 | 11089 ft | 186 kts | 125° |
| 2026-04-25 16:09 | 47.69865 | 8.41652 | 11089 ft | 186 kts | 124° |
| 2026-04-25 16:09 | 47.69149 | 8.43252 | 11085 ft | 186 kts | 124° |
| 2026-04-25 16:09 | 47.68615 | 8.45015 | 11096 ft | 188 kts | 111° |
| 2026-04-25 16:10 | 47.68155 | 8.46830 | 11080 ft | 188 kts | 111° |
| 2026-04-25 16:10 | 47.67694 | 8.48642 | 11081 ft | 187 kts | 111° |
| 2026-04-25 16:10 | 47.67235 | 8.50451 | 11077 ft | 188 kts | 111° |
| 2026-04-25 16:10 | 47.66780 | 8.52236 | 11075 ft | 187 kts | 111° |
| 2026-04-25 16:11 | 47.66316 | 8.54060 | 11077 ft | 186 kts | 111° |
| 2026-04-25 16:11 | 47.65860 | 8.55850 | 11072 ft | 185 kts | 111° |
| 2026-04-25 16:11 | 47.65410 | 8.57616 | 11078 ft | 186 kts | 111° |
| 2026-04-25 16:11 | 47.64951 | 8.59415 | 11072 ft | 187 kts | 111° |
| 2026-04-25 16:12 | 47.64490 | 8.61218 | 11076 ft | 187 kts | 111° |
| 2026-04-25 16:12 | 47.64028 | 8.63022 | 11076 ft | 187 kts | 111° |
| 2026-04-25 16:12 | 47.63567 | 8.64825 | 11071 ft | 187 kts | 111° |
| 2026-04-25 16:12 | 47.63411 | 8.65432 | 11076 ft | 187 kts | 111° |
| 2026-04-25 16:13 | 47.62644 | 8.68430 | 11079 ft | 187 kts | 111° |
| 2026-04-25 16:13 | 47.62182 | 8.70231 | 11073 ft | 186 kts | 111° |
| 2026-04-25 16:13 | 47.61724 | 8.72020 | 11077 ft | 186 kts | 111° |
| 2026-04-25 16:13 | 47.61262 | 8.73815 | 11070 ft | 186 kts | 111° |
| 2026-04-25 16:14 | 47.60801 | 8.75606 | 11073 ft | 186 kts | 111° |
| 2026-04-25 16:14 | 47.60342 | 8.77396 | 11074 ft | 187 kts | 111° |
| 2026-04-25 16:14 | 47.59880 | 8.79194 | 11078 ft | 187 kts | 111° |
| 2026-04-25 16:14 | 47.59418 | 8.80989 | 11077 ft | 187 kts | 111° |
| 2026-04-25 16:15 | 47.59213 | 8.82882 | 11083 ft | 185 kts | 90° |
| 2026-04-25 16:15 | 47.59199 | 8.84784 | 11081 ft | 185 kts | 90° |
| 2026-04-25 16:15 | 47.59191 | 8.86673 | 11078 ft | 186 kts | 90° |
| 2026-04-25 16:15 | 47.59183 | 8.88609 | 11077 ft | 186 kts | 90° |
| 2026-04-25 16:16 | 47.59175 | 8.90522 | 11079 ft | 186 kts | 90° |
| 2026-04-25 16:16 | 47.59163 | 8.92446 | 11073 ft | 186 kts | 90° |
| 2026-04-25 16:16 | 47.59149 | 8.94330 | 11075 ft | 186 kts | 90° |
| 2026-04-25 16:16 | 47.59139 | 8.96272 | 11074 ft | 186 kts | 90° |
| 2026-04-25 16:17 | 47.59130 | 8.98160 | 11072 ft | 185 kts | 90° |
| 2026-04-25 16:17 | 47.59119 | 8.99980 | 11071 ft | 186 kts | 90° |
| 2026-04-25 16:17 | 47.59106 | 9.01896 | 11068 ft | 186 kts | 90° |
| 2026-04-25 16:17 | 47.59095 | 9.03812 | 11067 ft | 186 kts | 90° |
| 2026-04-25 16:18 | 47.59083 | 9.05727 | 11070 ft | 186 kts | 90° |
| 2026-04-25 16:18 | 47.59078 | 9.06374 | 11069 ft | 186 kts | 90° |
| 2026-04-25 16:18 | 47.59052 | 9.09564 | 11065 ft | 187 kts | 90° |
| 2026-04-25 16:18 | 47.59040 | 9.11485 | 11069 ft | 186 kts | 90° |
| 2026-04-25 16:19 | 47.59027 | 9.13402 | 11070 ft | 186 kts | 90° |
| 2026-04-25 16:19 | 47.59014 | 9.15314 | 11069 ft | 185 kts | 90° |
| 2026-04-25 16:19 | 47.58998 | 9.17226 | 11063 ft | 185 kts | 90° |
| 2026-04-25 16:20 | 47.58968 | 9.21032 | 11068 ft | 184 kts | 89° |
| 2026-04-25 16:20 | 47.58955 | 9.22931 | 11066 ft | 184 kts | 90° |
| 2026-04-25 16:20 | 47.58922 | 9.26727 | 11066 ft | 184 kts | 90° |
| 2026-04-25 16:21 | 47.58905 | 9.28630 | 11068 ft | 185 kts | 90° |
| 2026-04-25 16:21 | 47.58888 | 9.30534 | 11068 ft | 185 kts | 90° |
| 2026-04-25 16:21 | 47.58871 | 9.32446 | 11067 ft | 186 kts | 90° |
| 2026-04-25 16:21 | 47.58855 | 9.34363 | 11065 ft | 186 kts | 90° |
| 2026-04-25 16:22 | 47.58837 | 9.36249 | 11069 ft | 185 kts | 90° |
| 2026-04-25 16:22 | 47.58819 | 9.38151 | 11069 ft | 185 kts | 90° |
| 2026-04-25 16:22 | 47.58801 | 9.40055 | 11070 ft | 184 kts | 90° |
| 2026-04-25 16:22 | 47.58783 | 9.41954 | 11069 ft | 184 kts | 90° |
| 2026-04-25 16:23 | 47.58764 | 9.43847 | 11070 ft | 184 kts | 90° |
| 2026-04-25 16:23 | 47.58771 | 9.45738 | 11066 ft | 184 kts | 84° |
| 2026-04-25 16:23 | 47.58957 | 9.47611 | 11072 ft | 183 kts | 79° |
| 2026-04-25 16:23 | 47.59162 | 9.49474 | 11073 ft | 183 kts | 80° |
| 2026-04-25 16:24 | 47.59338 | 9.51343 | 11074 ft | 183 kts | 81° |
| 2026-04-25 16:24 | 47.59501 | 9.53215 | 11075 ft | 183 kts | 81° |
| 2026-04-25 16:24 | 47.59663 | 9.55089 | 11077 ft | 184 kts | 81° |
| 2026-04-25 16:24 | 47.59827 | 9.56977 | 11074 ft | 185 kts | 81° |
| 2026-04-25 16:25 | 47.59936 | 9.58223 | 11074 ft | 184 kts | 81° |
| 2026-04-25 16:25 | 47.60038 | 9.59396 | 11078 ft | 185 kts | 81° |
| 2026-04-25 16:25 | 47.60314 | 9.62569 | 11072 ft | 185 kts | 81° |
| 2026-04-25 16:25 | 47.60477 | 9.64460 | 11082 ft | 185 kts | 81° |
| 2026-04-25 16:26 | 47.60640 | 9.66349 | 11072 ft | 184 kts | 81° |
| 2026-04-25 16:26 | 47.60802 | 9.68230 | 11073 ft | 184 kts | 81° |
| 2026-04-25 16:26 | 47.60965 | 9.70114 | 11072 ft | 184 kts | 81° |
| 2026-04-25 16:26 | 47.61071 | 9.71358 | 11071 ft | 184 kts | 81° |
| 2026-04-25 16:27 | 47.61284 | 9.73847 | 11078 ft | 183 kts | 81° |
| 2026-04-25 16:27 | 47.61446 | 9.75722 | 11073 ft | 183 kts | 81° |
| 2026-04-25 16:27 | 47.61553 | 9.76962 | 11071 ft | 183 kts | 81° |
| 2026-04-25 16:27 | 47.61713 | 9.78866 | 11075 ft | 184 kts | 81° |
| 2026-04-25 16:28 | 47.61871 | 9.80722 | 11073 ft | 184 kts | 81° |
| 2026-04-25 16:28 | 47.62031 | 9.82602 | 11070 ft | 184 kts | 81° |
| 2026-04-25 16:28 | 47.62194 | 9.84490 | 11076 ft | 184 kts | 81° |
| 2026-04-25 16:28 | 47.62353 | 9.86371 | 11075 ft | 184 kts | 81° |
| 2026-04-25 16:29 | 47.62512 | 9.88259 | 11075 ft | 184 kts | 81° |
| 2026-04-25 16:29 | 47.62671 | 9.90145 | 11074 ft | 184 kts | 81° |
| 2026-04-25 16:29 | 47.62829 | 9.92029 | 11072 ft | 184 kts | 81° |
| 2026-04-25 16:29 | 47.62987 | 9.93913 | 11075 ft | 184 kts | 81° |
| 2026-04-25 16:30 | 47.63145 | 9.95793 | 11077 ft | 184 kts | 81° |
| 2026-04-25 16:30 | 47.63302 | 9.97679 | 11076 ft | 185 kts | 82° |
| 2026-04-25 16:30 | 47.63460 | 9.99568 | 11082 ft | 184 kts | 81° |
| 2026-04-25 16:30 | 47.63617 | 10.01452 | 11083 ft | 184 kts | 81° |
| 2026-04-25 16:31 | 47.63774 | 10.03336 | 11085 ft | 184 kts | 81° |
| 2026-04-25 16:31 | 47.63931 | 10.05215 | 11083 ft | 184 kts | 81° |
| 2026-04-25 16:31 | 47.64079 | 10.07101 | 11082 ft | 184 kts | 82° |
| 2026-04-25 16:31 | 47.64224 | 10.08988 | 11084 ft | 184 kts | 82° |
| 2026-04-25 16:32 | 47.64370 | 10.10871 | 11083 ft | 183 kts | 82° |
| 2026-04-25 16:32 | 47.64530 | 10.12741 | 11084 ft | 183 kts | 80° |
| 2026-04-25 16:32 | 47.64700 | 10.14614 | 11080 ft | 183 kts | 81° |
| 2026-04-25 16:32 | 47.64857 | 10.16461 | 11083 ft | 183 kts | 81° |
| 2026-04-25 16:33 | 47.65011 | 10.18341 | 11080 ft | 184 kts | 81° |
| 2026-04-25 16:33 | 47.65166 | 10.20231 | 11082 ft | 185 kts | 81° |
| 2026-04-25 16:33 | 47.65319 | 10.22120 | 11081 ft | 185 kts | 81° |
| 2026-04-25 16:33 | 47.65472 | 10.24009 | 11078 ft | 184 kts | 81° |
| 2026-04-25 16:34 | 47.65625 | 10.25898 | 11084 ft | 184 kts | 81° |
| 2026-04-25 16:34 | 47.65778 | 10.27790 | 11079 ft | 184 kts | 81° |
| 2026-04-25 16:34 | 47.65930 | 10.29672 | 11085 ft | 185 kts | 81° |
| 2026-04-25 16:34 | 47.66083 | 10.31571 | 11083 ft | 185 kts | 81° |
| 2026-04-25 16:35 | 47.66236 | 10.33470 | 11102 ft | 186 kts | 81° |
| 2026-04-25 16:35 | 47.66391 | 10.35378 | 11086 ft | 187 kts | 81° |
| 2026-04-25 16:35 | 47.66544 | 10.37291 | 11084 ft | 186 kts | 81° |
| 2026-04-25 16:35 | 47.66695 | 10.39199 | 11081 ft | 186 kts | 81° |
| 2026-04-25 16:36 | 47.66846 | 10.41103 | 11084 ft | 185 kts | 81° |
| 2026-04-25 16:36 | 47.66896 | 10.41719 | 11090 ft | 186 kts | 81° |
| 2026-04-25 16:36 | 47.67151 | 10.44911 | 11077 ft | 186 kts | 81° |
| 2026-04-25 16:36 | 47.67301 | 10.46818 | 11076 ft | 185 kts | 81° |
| 2026-04-25 16:37 | 47.67451 | 10.48704 | 11079 ft | 184 kts | 81° |
| 2026-04-25 16:37 | 47.67598 | 10.50565 | 11079 ft | 184 kts | 81° |
| 2026-04-25 16:37 | 47.67746 | 10.52455 | 11078 ft | 184 kts | 81° |
| 2026-04-25 16:37 | 47.67894 | 10.54341 | 11078 ft | 184 kts | 81° |
| 2026-04-25 16:38 | 47.68041 | 10.56222 | 11082 ft | 184 kts | 81° |
| 2026-04-25 16:38 | 47.68190 | 10.58102 | 11080 ft | 183 kts | 81° |
| 2026-04-25 16:38 | 47.68336 | 10.59984 | 11079 ft | 183 kts | 81° |
| 2026-04-25 16:38 | 47.68483 | 10.61868 | 11083 ft | 183 kts | 82° |
| 2026-04-25 16:39 | 47.68630 | 10.63748 | 11079 ft | 184 kts | 81° |
| 2026-04-25 16:39 | 47.68776 | 10.65636 | 11076 ft | 184 kts | 81° |
| 2026-04-25 16:39 | 47.68922 | 10.67527 | 11079 ft | 184 kts | 81° |
| 2026-04-25 16:39 | 47.69068 | 10.69416 | 11078 ft | 184 kts | 82° |
| 2026-04-25 16:40 | 47.69213 | 10.71304 | 11080 ft | 184 kts | 81° |
| 2026-04-25 16:40 | 47.69359 | 10.73191 | 11079 ft | 184 kts | 81° |
| 2026-04-25 16:40 | 47.69504 | 10.75075 | 11076 ft | 184 kts | 82° |
| 2026-04-25 16:40 | 47.69647 | 10.76960 | 11077 ft | 184 kts | 81° |
| 2026-04-25 16:41 | 47.69791 | 10.78847 | 11076 ft | 184 kts | 81° |
| 2026-04-25 16:41 | 47.69887 | 10.80098 | 11078 ft | 185 kts | 81° |
| 2026-04-25 16:41 | 47.70220 | 10.84504 | 11077 ft | 185 kts | 82° |
| 2026-04-25 16:42 | 47.70364 | 10.86395 | 11076 ft | 185 kts | 81° |
| 2026-04-25 16:42 | 47.70509 | 10.88302 | 11071 ft | 185 kts | 81° |
| 2026-04-25 16:42 | 47.70652 | 10.90200 | 11070 ft | 185 kts | 81° |
| 2026-04-25 16:42 | 47.70795 | 10.92092 | 11071 ft | 184 kts | 81° |
| 2026-04-25 16:43 | 47.70937 | 10.93980 | 11071 ft | 184 kts | 81° |
| 2026-04-25 16:43 | 47.71078 | 10.95870 | 11073 ft | 184 kts | 81° |
| 2026-04-25 16:43 | 47.71218 | 10.97764 | 11071 ft | 184 kts | 81° |
| 2026-04-25 16:43 | 47.71360 | 10.99651 | 11071 ft | 184 kts | 81° |
| 2026-04-25 16:44 | 47.71501 | 11.01534 | 11070 ft | 184 kts | 81° |
| 2026-04-25 16:44 | 47.71640 | 11.03432 | 11068 ft | 184 kts | 81° |
| 2026-04-25 16:44 | 47.71779 | 11.05296 | 11068 ft | 184 kts | 81° |
| 2026-04-25 16:44 | 47.71919 | 11.07180 | 11075 ft | 184 kts | 81° |
| 2026-04-25 16:45 | 47.72058 | 11.09071 | 11066 ft | 184 kts | 81° |
| 2026-04-25 16:45 | 47.72197 | 11.10961 | 11064 ft | 184 kts | 81° |
| 2026-04-25 16:45 | 47.72335 | 11.12847 | 11063 ft | 183 kts | 81° |
| 2026-04-25 16:45 | 47.72474 | 11.14733 | 11066 ft | 184 kts | 81° |
| 2026-04-25 16:46 | 47.72612 | 11.16624 | 11060 ft | 184 kts | 82° |
| 2026-04-25 16:46 | 47.72748 | 11.18504 | 11061 ft | 183 kts | 81° |
| 2026-04-25 16:46 | 47.72886 | 11.20396 | 11059 ft | 184 kts | 81° |
| 2026-04-25 16:46 | 47.72976 | 11.21646 | 11053 ft | 184 kts | 81° |
| 2026-04-25 16:47 | 47.73159 | 11.24176 | 11053 ft | 184 kts | 81° |
| 2026-04-25 16:47 | 47.73294 | 11.26032 | 11054 ft | 183 kts | 81° |
| 2026-04-25 16:47 | 47.73432 | 11.27945 | 11047 ft | 185 kts | 81° |
| 2026-04-25 16:47 | 47.73567 | 11.29816 | 11045 ft | 184 kts | 81° |
| 2026-04-25 16:48 | 47.73703 | 11.31714 | 11053 ft | 184 kts | 81° |
| 2026-04-25 16:48 | 47.73839 | 11.33614 | 11041 ft | 185 kts | 81° |
| 2026-04-25 16:48 | 47.73975 | 11.35513 | 11039 ft | 185 kts | 81° |
| 2026-04-25 16:48 | 47.74110 | 11.37407 | 11039 ft | 185 kts | 81° |
| 2026-04-25 16:49 | 47.74243 | 11.39303 | 11041 ft | 185 kts | 81° |
| 2026-04-25 16:49 | 47.74377 | 11.41204 | 11038 ft | 185 kts | 81° |
| 2026-04-25 16:49 | 47.74512 | 11.43106 | 11037 ft | 185 kts | 81° |
| 2026-04-25 16:49 | 47.74646 | 11.45007 | 11037 ft | 185 kts | 81° |
| 2026-04-25 16:50 | 47.74779 | 11.46907 | 11041 ft | 186 kts | 81° |
| 2026-04-25 16:50 | 47.74914 | 11.48832 | 11038 ft | 187 kts | 81° |
| 2026-04-25 16:50 | 47.75049 | 11.50748 | 11043 ft | 187 kts | 81° |
| 2026-04-25 16:50 | 47.75183 | 11.52666 | 11030 ft | 185 kts | 81° |
| 2026-04-25 16:51 | 47.75314 | 11.54543 | 11036 ft | 185 kts | 81° |
| 2026-04-25 16:51 | 47.75447 | 11.56453 | 11038 ft | 186 kts | 81° |
| 2026-04-25 16:51 | 47.75578 | 11.58361 | 11037 ft | 186 kts | 81° |
| 2026-04-25 16:51 | 47.75623 | 11.59008 | 11045 ft | 186 kts | 81° |
| 2026-04-25 16:52 | 47.75844 | 11.62181 | 11035 ft | 185 kts | 81° |
| 2026-04-25 16:52 | 47.75975 | 11.64092 | 11036 ft | 186 kts | 81° |
| 2026-04-25 16:52 | 47.76106 | 11.66007 | 11034 ft | 186 kts | 81° |
| 2026-04-25 16:52 | 47.76237 | 11.67912 | 11035 ft | 185 kts | 81° |
| 2026-04-25 16:53 | 47.76497 | 11.71730 | 11033 ft | 185 kts | 81° |
| 2026-04-25 16:53 | 47.76626 | 11.73631 | 11035 ft | 185 kts | 81° |
| 2026-04-25 16:53 | 47.76755 | 11.75530 | 11034 ft | 185 kts | 81° |
| 2026-04-25 16:54 | 47.76884 | 11.77439 | 11036 ft | 186 kts | 81° |
| 2026-04-25 16:54 | 47.77014 | 11.79353 | 11038 ft | 186 kts | 81° |
| 2026-04-25 16:54 | 47.77139 | 11.81256 | 11039 ft | 185 kts | 81° |
| 2026-04-25 16:54 | 47.77267 | 11.83131 | 11041 ft | 185 kts | 81° |
| 2026-04-25 16:55 | 47.77396 | 11.85039 | 11046 ft | 186 kts | 81° |
| 2026-04-25 16:55 | 47.77523 | 11.86949 | 11036 ft | 185 kts | 81° |
| 2026-04-25 16:55 | 47.77649 | 11.88857 | 11039 ft | 186 kts | 81° |
| 2026-04-25 16:55 | 47.77777 | 11.90770 | 11036 ft | 186 kts | 81° |
| 2026-04-25 16:56 | 47.77904 | 11.92677 | 11034 ft | 185 kts | 81° |
| 2026-04-25 16:56 | 47.78029 | 11.94576 | 11038 ft | 185 kts | 81° |
| 2026-04-25 16:56 | 47.78157 | 11.96484 | 11039 ft | 185 kts | 81° |
| 2026-04-25 16:56 | 47.78280 | 11.98392 | 11038 ft | 186 kts | 81° |
| 2026-04-25 16:57 | 47.78405 | 12.00307 | 11040 ft | 186 kts | 81° |
| 2026-04-25 16:57 | 47.78446 | 12.00926 | 11040 ft | 186 kts | 81° |
| 2026-04-25 16:57 | 47.78655 | 12.04105 | 11040 ft | 186 kts | 81° |
| 2026-04-25 16:57 | 47.78779 | 12.06013 | 11040 ft | 185 kts | 81° |
| 2026-04-25 16:58 | 47.78901 | 12.07920 | 11041 ft | 185 kts | 81° |
| 2026-04-25 16:58 | 47.79025 | 12.09831 | 11041 ft | 186 kts | 81° |
| 2026-04-25 16:58 | 47.79149 | 12.11742 | 11040 ft | 186 kts | 81° |
| 2026-04-25 16:58 | 47.79272 | 12.13652 | 11041 ft | 186 kts | 81° |
| 2026-04-25 16:59 | 47.79398 | 12.15581 | 10942 ft | 191 kts | 81° |
| 2026-04-25 16:59 | 47.79525 | 12.17576 | 10822 ft | 195 kts | 81° |
| 2026-04-25 16:59 | 47.79653 | 12.19605 | 10699 ft | 198 kts | 82° |
| 2026-04-25 16:59 | 47.79783 | 12.21654 | 10576 ft | 200 kts | 82° |
| 2026-04-25 17:00 | 47.79871 | 12.23020 | 10500 ft | 200 kts | 81° |
| 2026-04-25 17:00 | 47.80044 | 12.25774 | 10342 ft | 200 kts | 82° |
| 2026-04-25 17:00 | 47.80176 | 12.27843 | 10220 ft | 201 kts | 82° |
| 2026-04-25 17:00 | 47.80309 | 12.29896 | 10094 ft | 202 kts | 81° |
| 2026-04-25 17:01 | 47.80438 | 12.31984 | 9978 ft | 202 kts | 82° |
| 2026-04-25 17:01 | 47.80568 | 12.34065 | 9854 ft | 201 kts | 82° |
| 2026-04-25 17:01 | 47.80697 | 12.36137 | 9730 ft | 201 kts | 82° |
| 2026-04-25 17:01 | 47.80826 | 12.38210 | 9598 ft | 201 kts | 82° |
| 2026-04-25 17:02 | 47.80954 | 12.40277 | 9502 ft | 199 kts | 82° |
| 2026-04-25 17:02 | 47.81083 | 12.42339 | 9297 ft | 203 kts | 82° |
| 2026-04-25 17:02 | 47.81214 | 12.44459 | 9038 ft | 207 kts | 82° |
| 2026-04-25 17:02 | 47.81345 | 12.46611 | 8766 ft | 210 kts | 83° |
| 2026-04-25 17:03 | 47.81477 | 12.48784 | 8489 ft | 210 kts | 82° |
| 2026-04-25 17:03 | 47.81606 | 12.50906 | 8215 ft | 202 kts | 83° |
| 2026-04-25 17:03 | 47.81730 | 12.52950 | 7954 ft | 196 kts | 82° |
| 2026-04-25 17:03 | 47.81854 | 12.54954 | 7662 ft | 194 kts | 83° |
| 2026-04-25 17:04 | 47.81975 | 12.56936 | 7399 ft | 191 kts | 83° |
| 2026-04-25 17:04 | 47.82104 | 12.58858 | 7145 ft | 187 kts | 78° |
| 2026-04-25 17:04 | 47.82566 | 12.60616 | 7018 ft | 176 kts | 53° |
| 2026-04-25 17:04 | 47.83322 | 12.61953 | 7010 ft | 163 kts | 42° |
| 2026-04-25 17:05 | 47.84071 | 12.63160 | 7005 ft | 155 kts | 42° |
| 2026-04-25 17:05 | 47.85492 | 12.65442 | 7006 ft | 146 kts | 41° |
| 2026-04-25 17:05 | 47.86159 | 12.66565 | 7002 ft | 145 kts | 48° |
| 2026-04-25 17:06 | 47.86733 | 12.67798 | 7005 ft | 145 kts | 51° |
| 2026-04-25 17:06 | 47.87319 | 12.69086 | 6898 ft | 158 kts | 51° |
| 2026-04-25 17:06 | 47.87969 | 12.70497 | 6756 ft | 173 kts | 51° |
| 2026-04-25 17:06 | 47.88681 | 12.72037 | 6489 ft | 186 kts | 52° |
| 2026-04-25 17:07 | 47.89408 | 12.73630 | 6231 ft | 184 kts | 52° |
| 2026-04-25 17:07 | 47.90125 | 12.75179 | 6013 ft | 181 kts | 51° |
| 2026-04-25 17:07 | 47.90839 | 12.76722 | 5761 ft | 179 kts | 51° |
| 2026-04-25 17:07 | 47.91545 | 12.78243 | 5527 ft | 178 kts | 51° |
| 2026-04-25 17:08 | 47.92242 | 12.79753 | 5289 ft | 175 kts | 51° |
| 2026-04-25 17:08 | 47.92931 | 12.81243 | 5068 ft | 174 kts | 51° |
| 2026-04-25 17:08 | 47.93611 | 12.82720 | 4847 ft | 172 kts | 51° |
| 2026-04-25 17:08 | 47.94278 | 12.84164 | 4614 ft | 171 kts | 52° |
| 2026-04-25 17:09 | 47.94924 | 12.85660 | 4379 ft | 173 kts | 62° |
| 2026-04-25 17:09 | 47.95192 | 12.87401 | 4163 ft | 175 kts | 87° |
| 2026-04-25 17:09 | 47.94955 | 12.89174 | 4009 ft | 173 kts | 114° |
| 2026-04-25 17:09 | 47.94300 | 12.90595 | 4004 ft | 162 kts | 139° |
| 2026-04-25 17:10 | 47.93385 | 12.91454 | 4012 ft | 152 kts | 165° |
| 2026-04-25 17:10 | 47.92373 | 12.91815 | 4023 ft | 149 kts | 161° |
| 2026-04-25 17:10 | 47.91514 | 12.92623 | 4053 ft | 150 kts | 151° |
| 2026-04-25 17:10 | 47.90527 | 12.93192 | 3906 ft | 157 kts | 167° |
| 2026-04-25 17:11 | 47.89462 | 12.93795 | 3620 ft | 169 kts | 158° |
| 2026-04-25 17:11 | 47.88379 | 12.94572 | 3269 ft | 176 kts | 155° |
| 2026-04-25 17:11 | 47.87293 | 12.95347 | 3032 ft | 172 kts | 158° |
| 2026-04-25 17:11 | 47.86192 | 12.96050 | 2719 ft | 171 kts | 159° |
| 2026-04-25 17:12 | 47.85123 | 12.96729 | 2548 ft | 165 kts | 156° |
| 2026-04-25 17:12 | 47.84271 | 12.97763 | 2574 ft | 152 kts | 131° |
| 2026-04-25 17:12 | 47.83600 | 12.98926 | 2571 ft | 145 kts | 129° |
| 2026-04-25 17:12 | 47.82947 | 13.00013 | 2568 ft | 138 kts | 135° |
| 2026-04-25 17:13 | 47.82253 | 13.00962 | 2567 ft | 137 kts | 139° |
| 2026-04-25 17:13 | 47.82014 | 13.01274 | 2562 ft | 134 kts | 139° |
| 2026-04-25 17:13 | 47.80858 | 13.02622 | 2566 ft | 120 kts | 144° |
| 2026-04-25 17:13 | 47.80204 | 13.03329 | 2578 ft | 114 kts | 144° |
| 2026-04-25 17:14 | 47.79564 | 13.04014 | 2579 ft | 113 kts | 144° |
| 2026-04-25 17:14 | 47.78946 | 13.04735 | 2564 ft | 113 kts | 131° |
| 2026-04-25 17:14 | 47.78413 | 13.05609 | 2576 ft | 117 kts | 130° |
| 2026-04-25 17:14 | 47.77861 | 13.06528 | 2583 ft | 122 kts | 132° |
| 2026-04-25 17:15 | 47.77389 | 13.07027 | 2583 ft | 124 kts | 153° |
| 2026-04-25 17:15 | 47.76307 | 13.07000 | 2576 ft | 116 kts | 214° |
| 2026-04-25 17:15 | 47.75933 | 13.06465 | 2590 ft | 113 kts | 243° |
| 2026-04-25 17:15 | 47.75805 | 13.05379 | 2582 ft | 102 kts | 281° |
| 2026-04-25 17:16 | 47.75899 | 13.04408 | 2559 ft | 94 kts | 285° |
| 2026-04-25 17:16 | 47.76017 | 13.03436 | 2462 ft | 98 kts | 288° |
| 2026-04-25 17:16 | 47.76255 | 13.02537 | 2273 ft | 90 kts | 311° |
| 2026-04-25 17:16 | 47.76745 | 13.02024 | 2009 ft | 83 kts | 334° |
| 2026-04-25 17:17 | 47.77282 | 13.01685 | 1829 ft | 85 kts | 338° |
| 2026-04-25 17:17 | 47.77828 | 13.01349 | 1666 ft | 84 kts | 338° |
| 2026-04-25 17:17 | 47.78362 | 13.01012 | 1483 ft | 82 kts | 336° |
| 2026-04-25 17:17 | 47.78848 | 13.00700 | 1414 ft | 61 kts | 336° |
| 2026-04-25 17:18 | 47.79079 | 13.00551 | 1419 ft | 20 kts | 323° |
| 2026-04-25 17:18 | 47.79119 | 13.00396 | 1414 ft | 18 kts | 285° |
| 2026-04-25 17:18 | 47.79164 | 13.00247 | 1414 ft | 13 kts | 322° |
| 2026-04-25 17:18 | 47.79256 | 13.00172 | 1414 ft | 18 kts | 335° |
| 2026-04-25 17:19 | 47.79390 | 13.00091 | 1415 ft | 23 kts | 337° |
| 2026-04-25 17:19 | 47.79509 | 13.00016 | 1415 ft | 16 kts | 336° |
| 2026-04-25 17:19 | 47.79554 | 12.99922 | 1414 ft | 10 kts | 253° |
| 2026-04-25 17:19 | 47.79547 | 12.99834 | 1414 ft | 8 kts | 266° |
| 2026-04-25 17:20 | 47.79532 | 12.99767 | 1414 ft | 3 kts | 262° |
| 2026-04-25 17:20 | 47.79542 | 12.99748 | 1414 ft | 1 kts | 331° |
| 2026-04-25 17:20 | 47.79546 | 12.99745 | 1414 ft | 0 kts | 335° |